PWSweather.com
Personal Weather Stations
Station Observations
NORTHPOLE1
Tombur Subdivision, North Pole, AK 99705

Tombur SubdivisionNorth Pole, AK 99705

Lat: 64.774039, Lon: -147.284862

Elevation: 434

Station Type: Davis Vantage Pro 2

http://kl7ac.com

High Low Average
Temperature 54.2°F12.3°F 34.6°F1.4°F 44.4°F6.9°F
Dew Point 31.2°F-0.4°F 25.6°F-3.6°F 28.1°F-2.2°F
Winds 10.0 mph ENE16.1 mph ENE 1.0 mph 1.6 mph 5.0 mph 8.0 mph
Wind Gusts 18.0 mph29.0 mph 5.0 mph8.0 mph 12.1 mph19.5 mph
Humidity 71% 36% 54%
Pressure 29.86 in1011.20 in 29.70 in1005.80 in -
Precipitation 0.00 in0.00 in - -
Hour Temp Dew Point Humidity Winds Wind Gusts Pressure Precip Precip Rate Daily Precip Total
12:00 AM 40.0°F4.4°C 28.8°F-1.8°C 64% 5.0 mph NE8.0 kmh NE 13.0 mph20.9 kmh 29.85 in1010.8 mb 0.00 in0.0 mm 0.00 in/hr0.0 mm/hr 0.00 in0.0 mm
12:05 AM 40.0°F4.4°C 28.4°F-2.0°C 63% 6.0 mph NE9.7 kmh NE 13.0 mph20.9 kmh 29.85 in1010.8 mb 0.00 in0.0 mm 0.00 in/hr0.0 mm/hr 0.00 in0.0 mm
12:10 AM 40.0°F4.4°C 28.4°F-2.0°C 63% 6.0 mph NE9.7 kmh NE 16.0 mph25.7 kmh 29.85 in1010.8 mb 0.00 in0.0 mm 0.00 in/hr0.0 mm/hr 0.00 in0.0 mm
12:15 AM 40.0°F4.4°C 28.8°F-1.8°C 64% 6.0 mph NE9.7 kmh NE 16.0 mph25.7 kmh 29.85 in1010.8 mb 0.00 in0.0 mm 0.00 in/hr0.0 mm/hr 0.00 in0.0 mm
12:20 AM 40.0°F4.4°C 28.8°F-1.8°C 64% 5.0 mph NE8.0 kmh NE 13.0 mph20.9 kmh 29.85 in1010.8 mb 0.00 in0.0 mm 0.00 in/hr0.0 mm/hr 0.00 in0.0 mm
12:25 AM 39.9°F4.4°C 28.3°F-2.1°C 63% 5.0 mph NE8.0 kmh NE 12.0 mph19.3 kmh 29.85 in1010.8 mb 0.00 in0.0 mm 0.00 in/hr0.0 mm/hr 0.00 in0.0 mm
12:30 AM 39.8°F4.3°C 28.2°F-2.1°C 63% 4.0 mph NE6.4 kmh NE 12.0 mph19.3 kmh 29.85 in1010.8 mb 0.00 in0.0 mm 0.00 in/hr0.0 mm/hr 0.00 in0.0 mm
12:35 AM 39.7°F4.3°C 28.1°F-2.2°C 63% 4.0 mph NE6.4 kmh NE 12.0 mph19.3 kmh 29.85 in1010.8 mb 0.00 in0.0 mm 0.00 in/hr0.0 mm/hr 0.00 in0.0 mm
12:40 AM 39.6°F4.2°C 28.0°F-2.2°C 63% 5.0 mph NE8.0 kmh NE 12.0 mph19.3 kmh 29.85 in1010.8 mb 0.00 in0.0 mm 0.00 in/hr0.0 mm/hr 0.00 in0.0 mm
12:45 AM 39.6°F4.2°C 28.4°F-2.0°C 64% 4.0 mph NE6.4 kmh NE 11.0 mph17.7 kmh 29.85 in1010.8 mb 0.00 in0.0 mm 0.00 in/hr0.0 mm/hr 0.00 in0.0 mm
12:50 AM 39.5°F4.2°C 28.3°F-2.1°C 64% 4.0 mph NE6.4 kmh NE 11.0 mph17.7 kmh 29.85 in1010.8 mb 0.00 in0.0 mm 0.00 in/hr0.0 mm/hr 0.00 in0.0 mm
12:55 AM 39.5°F4.2°C 28.3°F-2.1°C 64% 5.0 mph NE8.0 kmh NE 11.0 mph17.7 kmh 29.86 in1011.2 mb 0.00 in0.0 mm 0.00 in/hr0.0 mm/hr 0.00 in0.0 mm
01:00 AM 39.5°F4.2°C 28.3°F-2.1°C 64% 5.0 mph NE8.0 kmh NE 10.0 mph16.1 kmh 29.86 in1011.2 mb 0.00 in0.0 mm 0.00 in/hr0.0 mm/hr 0.00 in0.0 mm
01:05 AM 39.5°F4.2°C 28.3°F-2.1°C 64% 4.0 mph NE6.4 kmh NE 11.0 mph17.7 kmh 29.86 in1011.2 mb 0.00 in0.0 mm 0.00 in/hr0.0 mm/hr 0.00 in0.0 mm
01:10 AM 39.4°F4.1°C 28.2°F-2.1°C 64% 4.0 mph NE6.4 kmh NE 11.0 mph17.7 kmh 29.86 in1011.2 mb 0.00 in0.0 mm 0.00 in/hr0.0 mm/hr 0.00 in0.0 mm
01:15 AM 39.4°F4.1°C 28.2°F-2.1°C 64% 4.0 mph NE6.4 kmh NE 12.0 mph19.3 kmh 29.86 in1011.2 mb 0.00 in0.0 mm 0.00 in/hr0.0 mm/hr 0.00 in0.0 mm
01:20 AM 39.5°F4.2°C 28.3°F-2.1°C 64% 5.0 mph NE8.0 kmh NE 12.0 mph19.3 kmh 29.85 in1010.8 mb 0.00 in0.0 mm 0.00 in/hr0.0 mm/hr 0.00 in0.0 mm
01:25 AM 39.7°F4.3°C 28.1°F-2.2°C 63% 5.0 mph NE8.0 kmh NE 12.0 mph19.3 kmh 29.86 in1011.2 mb 0.00 in0.0 mm 0.00 in/hr0.0 mm/hr 0.00 in0.0 mm
01:30 AM 39.8°F4.3°C 28.2°F-2.1°C 63% 5.0 mph NE8.0 kmh NE 12.0 mph19.3 kmh 29.86 in1011.2 mb 0.00 in0.0 mm 0.00 in/hr0.0 mm/hr 0.00 in0.0 mm
01:35 AM 39.8°F4.3°C 28.2°F-2.1°C 63% 5.0 mph NE8.0 kmh NE 12.0 mph19.3 kmh 29.85 in1010.8 mb 0.00 in0.0 mm 0.00 in/hr0.0 mm/hr 0.00 in0.0 mm
01:40 AM 39.9°F4.4°C 27.9°F-2.3°C 62% 5.0 mph NE8.0 kmh NE 14.0 mph22.5 kmh 29.86 in1011.2 mb 0.00 in0.0 mm 0.00 in/hr0.0 mm/hr 0.00 in0.0 mm
01:45 AM 39.9°F4.4°C 28.3°F-2.1°C 63% 6.0 mph NE9.7 kmh NE 14.0 mph22.5 kmh 29.85 in1010.8 mb 0.00 in0.0 mm 0.00 in/hr0.0 mm/hr 0.00 in0.0 mm
01:50 AM 39.9°F4.4°C 28.3°F-2.1°C 63% 5.0 mph NE8.0 kmh NE 13.0 mph20.9 kmh 29.85 in1010.8 mb 0.00 in0.0 mm 0.00 in/hr0.0 mm/hr 0.00 in0.0 mm
01:55 AM 39.8°F4.3°C 27.8°F-2.3°C 62% 4.0 mph NE6.4 kmh NE 13.0 mph20.9 kmh 29.85 in1010.8 mb 0.00 in0.0 mm 0.00 in/hr0.0 mm/hr 0.00 in0.0 mm
02:00 AM 39.8°F4.3°C 27.8°F-2.3°C 62% 4.0 mph NE6.4 kmh NE 11.0 mph17.7 kmh 29.85 in1010.8 mb 0.00 in0.0 mm 0.00 in/hr0.0 mm/hr 0.00 in0.0 mm
02:05 AM 39.8°F4.3°C 28.2°F-2.1°C 63% 4.0 mph NE6.4 kmh NE 11.0 mph17.7 kmh 29.85 in1010.8 mb 0.00 in0.0 mm 0.00 in/hr0.0 mm/hr 0.00 in0.0 mm
02:10 AM 39.7°F4.3°C 27.7°F-2.4°C 62% 4.0 mph NE6.4 kmh NE 13.0 mph20.9 kmh 29.85 in1010.8 mb 0.00 in0.0 mm 0.00 in/hr0.0 mm/hr 0.00 in0.0 mm
02:15 AM 39.7°F4.3°C 27.7°F-2.4°C 62% 5.0 mph NE8.0 kmh NE 13.0 mph20.9 kmh 29.85 in1010.8 mb 0.00 in0.0 mm 0.00 in/hr0.0 mm/hr 0.00 in0.0 mm
02:20 AM 39.8°F4.3°C 28.2°F-2.1°C 63% 5.0 mph NE8.0 kmh NE 13.0 mph20.9 kmh 29.86 in1011.2 mb 0.00 in0.0 mm 0.00 in/hr0.0 mm/hr 0.00 in0.0 mm
02:25 AM 39.8°F4.3°C 28.2°F-2.1°C 63% 5.0 mph NE8.0 kmh NE 14.0 mph22.5 kmh 29.85 in1010.8 mb 0.00 in0.0 mm 0.00 in/hr0.0 mm/hr 0.00 in0.0 mm
02:30 AM 39.8°F4.3°C 28.2°F-2.1°C 63% 5.0 mph NE8.0 kmh NE 14.0 mph22.5 kmh 29.85 in1010.8 mb 0.00 in0.0 mm 0.00 in/hr0.0 mm/hr 0.00 in0.0 mm
02:35 AM 39.9°F4.4°C 27.9°F-2.3°C 62% 5.0 mph NE8.0 kmh NE 13.0 mph20.9 kmh 29.85 in1010.8 mb 0.00 in0.0 mm 0.00 in/hr0.0 mm/hr 0.00 in0.0 mm
02:40 AM 39.9°F4.4°C 28.3°F-2.1°C 63% 5.0 mph NE8.0 kmh NE 13.0 mph20.9 kmh 29.85 in1010.8 mb 0.00 in0.0 mm 0.00 in/hr0.0 mm/hr 0.00 in0.0 mm
02:45 AM 39.9°F4.4°C 27.9°F-2.3°C 62% 4.0 mph NE6.4 kmh NE 11.0 mph17.7 kmh 29.85 in1010.8 mb 0.00 in0.0 mm 0.00 in/hr0.0 mm/hr 0.00 in0.0 mm
02:50 AM 39.8°F4.3°C 28.2°F-2.1°C 63% 5.0 mph NE8.0 kmh NE 11.0 mph17.7 kmh 29.85 in1010.8 mb 0.00 in0.0 mm 0.00 in/hr0.0 mm/hr 0.00 in0.0 mm
02:55 AM 39.8°F4.3°C 27.8°F-2.3°C 62% 5.0 mph NE8.0 kmh NE 11.0 mph17.7 kmh 29.85 in1010.8 mb 0.00 in0.0 mm 0.00 in/hr0.0 mm/hr 0.00 in0.0 mm
03:00 AM 39.8°F4.3°C 27.8°F-2.3°C 62% 5.0 mph NE8.0 kmh NE 12.0 mph19.3 kmh 29.85 in1010.8 mb 0.00 in0.0 mm 0.00 in/hr0.0 mm/hr 0.00 in0.0 mm
03:05 AM 39.8°F4.3°C 27.8°F-2.3°C 62% 5.0 mph NE8.0 kmh NE 12.0 mph19.3 kmh 29.85 in1010.8 mb 0.00 in0.0 mm 0.00 in/hr0.0 mm/hr 0.00 in0.0 mm
03:10 AM 39.8°F4.3°C 27.8°F-2.3°C 62% 5.0 mph NE8.0 kmh NE 11.0 mph17.7 kmh 29.85 in1010.8 mb 0.00 in0.0 mm 0.00 in/hr0.0 mm/hr 0.00 in0.0 mm
03:15 AM 39.7°F4.3°C 27.7°F-2.4°C 62% 4.0 mph NE6.4 kmh NE 10.0 mph16.1 kmh 29.85 in1010.8 mb 0.00 in0.0 mm 0.00 in/hr0.0 mm/hr 0.00 in0.0 mm
03:20 AM 39.6°F4.2°C 27.6°F-2.4°C 62% 4.0 mph NE6.4 kmh NE 14.0 mph22.5 kmh 29.85 in1010.8 mb 0.00 in0.0 mm 0.00 in/hr0.0 mm/hr 0.00 in0.0 mm
03:25 AM 39.6°F4.2°C 27.6°F-2.4°C 62% 5.0 mph NE8.0 kmh NE 14.0 mph22.5 kmh 29.85 in1010.8 mb 0.00 in0.0 mm 0.00 in/hr0.0 mm/hr 0.00 in0.0 mm
03:30 AM 39.7°F4.3°C 27.7°F-2.4°C 62% 5.0 mph NE8.0 kmh NE 11.0 mph17.7 kmh 29.85 in1010.8 mb 0.00 in0.0 mm 0.00 in/hr0.0 mm/hr 0.00 in0.0 mm
03:35 AM 39.6°F4.2°C 27.6°F-2.4°C 62% 4.0 mph NE6.4 kmh NE 10.0 mph16.1 kmh 29.84 in1010.5 mb 0.00 in0.0 mm 0.00 in/hr0.0 mm/hr 0.00 in0.0 mm
03:40 AM 39.5°F4.2°C 27.5°F-2.5°C 62% 4.0 mph NE6.4 kmh NE 11.0 mph17.7 kmh 29.85 in1010.8 mb 0.00 in0.0 mm 0.00 in/hr0.0 mm/hr 0.00 in0.0 mm
03:45 AM 39.5°F4.2°C 27.5°F-2.5°C 62% 5.0 mph NE8.0 kmh NE 12.0 mph19.3 kmh 29.84 in1010.5 mb 0.00 in0.0 mm 0.00 in/hr0.0 mm/hr 0.00 in0.0 mm
03:50 AM 39.5°F4.2°C 27.5°F-2.5°C 62% 5.0 mph NE8.0 kmh NE 12.0 mph19.3 kmh 29.84 in1010.5 mb 0.00 in0.0 mm 0.00 in/hr0.0 mm/hr 0.00 in0.0 mm
03:55 AM 39.5°F4.2°C 27.9°F-2.3°C 63% 4.0 mph NE6.4 kmh NE 12.0 mph19.3 kmh 29.85 in1010.8 mb 0.00 in0.0 mm 0.00 in/hr0.0 mm/hr 0.00 in0.0 mm
04:00 AM 39.4°F4.1°C 27.1°F-2.7°C 61% 3.0 mph NE4.8 kmh NE 12.0 mph19.3 kmh 29.85 in1010.8 mb 0.00 in0.0 mm 0.00 in/hr0.0 mm/hr 0.00 in0.0 mm
04:05 AM 39.4°F4.1°C 27.8°F-2.3°C 63% 4.0 mph NE6.4 kmh NE 12.0 mph19.3 kmh 29.84 in1010.5 mb 0.00 in0.0 mm 0.00 in/hr0.0 mm/hr 0.00 in0.0 mm
04:10 AM 39.3°F4.1°C 27.7°F-2.4°C 63% 4.0 mph NE6.4 kmh NE 10.0 mph16.1 kmh 29.84 in1010.5 mb 0.00 in0.0 mm 0.00 in/hr0.0 mm/hr 0.00 in0.0 mm
04:15 AM 39.2°F4.0°C 27.7°F-2.4°C 63% 4.0 mph NE6.4 kmh NE 10.0 mph16.1 kmh 29.84 in1010.5 mb 0.00 in0.0 mm 0.00 in/hr0.0 mm/hr 0.00 in0.0 mm
04:20 AM 39.1°F3.9°C 27.6°F-2.4°C 63% 4.0 mph NE6.4 kmh NE 12.0 mph19.3 kmh 29.84 in1010.5 mb 0.00 in0.0 mm 0.00 in/hr0.0 mm/hr 0.00 in0.0 mm
04:25 AM 39.1°F3.9°C 27.6°F-2.4°C 63% 4.0 mph NE6.4 kmh NE 12.0 mph19.3 kmh 29.84 in1010.5 mb 0.00 in0.0 mm 0.00 in/hr0.0 mm/hr 0.00 in0.0 mm
04:30 AM 39.1°F3.9°C 27.6°F-2.4°C 63% 4.0 mph NE6.4 kmh NE 10.0 mph16.1 kmh 29.84 in1010.5 mb 0.00 in0.0 mm 0.00 in/hr0.0 mm/hr 0.00 in0.0 mm
04:35 AM 39.1°F3.9°C 27.9°F-2.3°C 64% 3.0 mph NE4.8 kmh NE 10.0 mph16.1 kmh 29.84 in1010.5 mb 0.00 in0.0 mm 0.00 in/hr0.0 mm/hr 0.00 in0.0 mm
04:40 AM 39.0°F3.9°C 27.5°F-2.5°C 63% 3.0 mph NE4.8 kmh NE 10.0 mph16.1 kmh 29.84 in1010.5 mb 0.00 in0.0 mm 0.00 in/hr0.0 mm/hr 0.00 in0.0 mm
04:45 AM 39.0°F3.9°C 27.8°F-2.3°C 64% 3.0 mph NE4.8 kmh NE 9.0 mph14.5 kmh 29.84 in1010.5 mb 0.00 in0.0 mm 0.00 in/hr0.0 mm/hr 0.00 in0.0 mm
04:50 AM 38.9°F3.8°C 27.0°F-2.8°C 62% 3.0 mph NE4.8 kmh NE 9.0 mph14.5 kmh 29.84 in1010.5 mb 0.00 in0.0 mm 0.00 in/hr0.0 mm/hr 0.00 in0.0 mm
04:55 AM 38.9°F3.8°C 27.4°F-2.6°C 63% 4.0 mph NE6.4 kmh NE 9.0 mph14.5 kmh 29.84 in1010.5 mb 0.00 in0.0 mm 0.00 in/hr0.0 mm/hr 0.00 in0.0 mm
05:00 AM 38.9°F3.8°C 27.8°F-2.3°C 64% 3.0 mph NE4.8 kmh NE 9.0 mph14.5 kmh 29.84 in1010.5 mb 0.00 in0.0 mm 0.00 in/hr0.0 mm/hr 0.00 in0.0 mm
05:05 AM 38.9°F3.8°C 27.8°F-2.3°C 64% 3.0 mph NE4.8 kmh NE 10.0 mph16.1 kmh 29.84 in1010.5 mb 0.00 in0.0 mm 0.00 in/hr0.0 mm/hr 0.00 in0.0 mm
05:10 AM 38.9°F3.8°C 27.4°F-2.6°C 63% 3.0 mph NE4.8 kmh NE 10.0 mph16.1 kmh 29.84 in1010.5 mb 0.00 in0.0 mm 0.00 in/hr0.0 mm/hr 0.00 in0.0 mm
05:15 AM 38.9°F3.8°C 27.4°F-2.6°C 63% 4.0 mph NE6.4 kmh NE 12.0 mph19.3 kmh 29.84 in1010.5 mb 0.00 in0.0 mm 0.00 in/hr0.0 mm/hr 0.00 in0.0 mm
05:20 AM 38.9°F3.8°C 27.0°F-2.8°C 62% 5.0 mph NE8.0 kmh NE 12.0 mph19.3 kmh 29.84 in1010.5 mb 0.00 in0.0 mm 0.00 in/hr0.0 mm/hr 0.00 in0.0 mm
05:25 AM 38.9°F3.8°C 27.4°F-2.6°C 63% 5.0 mph NE8.0 kmh NE 10.0 mph16.1 kmh 29.84 in1010.5 mb 0.00 in0.0 mm 0.00 in/hr0.0 mm/hr 0.00 in0.0 mm
05:30 AM 38.9°F3.8°C 27.4°F-2.6°C 63% 4.0 mph NE6.4 kmh NE 10.0 mph16.1 kmh 29.84 in1010.5 mb 0.00 in0.0 mm 0.00 in/hr0.0 mm/hr 0.00 in0.0 mm
05:35 AM 38.9°F3.8°C 27.4°F-2.6°C 63% 5.0 mph NE8.0 kmh NE 13.0 mph20.9 kmh 29.84 in1010.5 mb 0.00 in0.0 mm 0.00 in/hr0.0 mm/hr 0.00 in0.0 mm
05:40 AM 38.9°F3.8°C 27.4°F-2.6°C 63% 5.0 mph NE8.0 kmh NE 13.0 mph20.9 kmh 29.84 in1010.5 mb 0.00 in0.0 mm 0.00 in/hr0.0 mm/hr 0.00 in0.0 mm
05:45 AM 39.0°F3.9°C 27.5°F-2.5°C 63% 4.0 mph NE6.4 kmh NE 13.0 mph20.9 kmh 29.84 in1010.5 mb 0.00 in0.0 mm 0.00 in/hr0.0 mm/hr 0.00 in0.0 mm
05:50 AM 39.0°F3.9°C 27.1°F-2.7°C 62% 4.0 mph NE6.4 kmh NE 12.0 mph19.3 kmh 29.84 in1010.5 mb 0.00 in0.0 mm 0.00 in/hr0.0 mm/hr 0.00 in0.0 mm
05:55 AM 39.0°F3.9°C 27.5°F-2.5°C 63% 4.0 mph NE6.4 kmh NE 12.0 mph19.3 kmh 29.84 in1010.5 mb 0.00 in0.0 mm 0.00 in/hr0.0 mm/hr 0.00 in0.0 mm
06:00 AM 39.0°F3.9°C 27.1°F-2.7°C 62% 3.0 mph NE4.8 kmh NE 10.0 mph16.1 kmh 29.84 in1010.5 mb 0.00 in0.0 mm 0.00 in/hr0.0 mm/hr 0.00 in0.0 mm
06:05 AM 39.0°F3.9°C 27.1°F-2.7°C 62% 4.0 mph NE6.4 kmh NE 10.0 mph16.1 kmh 29.84 in1010.5 mb 0.00 in0.0 mm 0.00 in/hr0.0 mm/hr 0.00 in0.0 mm
06:10 AM 39.1°F3.9°C 27.6°F-2.4°C 63% 4.0 mph NE6.4 kmh NE 9.0 mph14.5 kmh 29.84 in1010.5 mb 0.00 in0.0 mm 0.00 in/hr0.0 mm/hr 0.00 in0.0 mm
06:15 AM 39.1°F3.9°C 27.2°F-2.7°C 62% 5.0 mph NE8.0 kmh NE 17.0 mph27.4 kmh 29.84 in1010.5 mb 0.00 in0.0 mm 0.00 in/hr0.0 mm/hr 0.00 in0.0 mm
06:20 AM 39.2°F4.0°C 27.3°F-2.6°C 62% 5.0 mph NE8.0 kmh NE 17.0 mph27.4 kmh 29.85 in1010.8 mb 0.00 in0.0 mm 0.00 in/hr0.0 mm/hr 0.00 in0.0 mm
06:25 AM 39.2°F4.0°C 27.3°F-2.6°C 62% 5.0 mph NE8.0 kmh NE 12.0 mph19.3 kmh 29.84 in1010.5 mb 0.00 in0.0 mm 0.00 in/hr0.0 mm/hr 0.00 in0.0 mm
06:30 AM 39.3°F4.1°C 27.0°F-2.8°C 61% 5.0 mph NE8.0 kmh NE 14.0 mph22.5 kmh 29.84 in1010.5 mb 0.00 in0.0 mm 0.00 in/hr0.0 mm/hr 0.00 in0.0 mm
06:35 AM 39.4°F4.1°C 27.5°F-2.5°C 62% 5.0 mph NE8.0 kmh NE 14.0 mph22.5 kmh 29.84 in1010.5 mb 0.00 in0.0 mm 0.00 in/hr0.0 mm/hr 0.00 in0.0 mm
06:40 AM 39.5°F4.2°C 27.5°F-2.5°C 62% 4.0 mph NE6.4 kmh NE 11.0 mph17.7 kmh 29.84 in1010.5 mb 0.00 in0.0 mm 0.00 in/hr0.0 mm/hr 0.00 in0.0 mm
06:45 AM 39.5°F4.2°C 27.2°F-2.7°C 61% 4.0 mph NE6.4 kmh NE 11.0 mph17.7 kmh 29.84 in1010.5 mb 0.00 in0.0 mm 0.00 in/hr0.0 mm/hr 0.00 in0.0 mm
06:50 AM 39.6°F4.2°C 27.6°F-2.4°C 62% 4.0 mph NE6.4 kmh NE 11.0 mph17.7 kmh 29.84 in1010.5 mb 0.00 in0.0 mm 0.00 in/hr0.0 mm/hr 0.00 in0.0 mm
06:55 AM 39.7°F4.3°C 27.3°F-2.6°C 61% 5.0 mph NE8.0 kmh NE 11.0 mph17.7 kmh 29.84 in1010.5 mb 0.00 in0.0 mm 0.00 in/hr0.0 mm/hr 0.00 in0.0 mm
07:00 AM 39.8°F4.3°C 27.4°F-2.6°C 61% 5.0 mph NE8.0 kmh NE 11.0 mph17.7 kmh 29.84 in1010.5 mb 0.00 in0.0 mm 0.00 in/hr0.0 mm/hr 0.00 in0.0 mm
07:05 AM 39.8°F4.3°C 27.4°F-2.6°C 61% 4.0 mph NE6.4 kmh NE 13.0 mph20.9 kmh 29.85 in1010.8 mb 0.00 in0.0 mm 0.00 in/hr0.0 mm/hr 0.00 in0.0 mm
07:10 AM 39.9°F4.4°C 27.5°F-2.5°C 61% 4.0 mph NE6.4 kmh NE 13.0 mph20.9 kmh 29.85 in1010.8 mb 0.00 in0.0 mm 0.00 in/hr0.0 mm/hr 0.00 in0.0 mm
07:15 AM 40.0°F4.4°C 27.6°F-2.4°C 61% 4.0 mph NE6.4 kmh NE 13.0 mph20.9 kmh 29.84 in1010.5 mb 0.00 in0.0 mm 0.00 in/hr0.0 mm/hr 0.00 in0.0 mm
07:20 AM 40.1°F4.5°C 27.7°F-2.4°C 61% 5.0 mph NE8.0 kmh NE 13.0 mph20.9 kmh 29.84 in1010.5 mb 0.00 in0.0 mm 0.00 in/hr0.0 mm/hr 0.00 in0.0 mm
07:25 AM 40.2°F4.6°C 27.4°F-2.6°C 60% 4.0 mph NE6.4 kmh NE 12.0 mph19.3 kmh 29.84 in1010.5 mb 0.00 in0.0 mm 0.00 in/hr0.0 mm/hr 0.00 in0.0 mm
07:30 AM 40.3°F4.6°C 27.5°F-2.5°C 60% 4.0 mph NE6.4 kmh NE 11.0 mph17.7 kmh 29.84 in1010.5 mb 0.00 in0.0 mm 0.00 in/hr0.0 mm/hr 0.00 in0.0 mm
07:35 AM 40.4°F4.7°C 27.6°F-2.4°C 60% 6.0 mph NE9.7 kmh NE 13.0 mph20.9 kmh 29.84 in1010.5 mb 0.00 in0.0 mm 0.00 in/hr0.0 mm/hr 0.00 in0.0 mm
07:40 AM 40.6°F4.8°C 27.8°F-2.3°C 60% 4.0 mph NE6.4 kmh NE 13.0 mph20.9 kmh 29.84 in1010.5 mb 0.00 in0.0 mm 0.00 in/hr0.0 mm/hr 0.00 in0.0 mm
07:45 AM 40.6°F4.8°C 27.4°F-2.6°C 59% 3.0 mph NE4.8 kmh NE 11.0 mph17.7 kmh 29.84 in1010.5 mb 0.00 in0.0 mm 0.00 in/hr0.0 mm/hr 0.00 in0.0 mm
07:50 AM 40.8°F4.9°C 27.2°F-2.7°C 58% 5.0 mph NE8.0 kmh NE 12.0 mph19.3 kmh 29.84 in1010.5 mb 0.00 in0.0 mm 0.00 in/hr0.0 mm/hr 0.00 in0.0 mm
07:55 AM 40.9°F4.9°C 27.2°F-2.7°C 58% 6.0 mph NE9.7 kmh NE 13.0 mph20.9 kmh 29.84 in1010.5 mb 0.00 in0.0 mm 0.00 in/hr0.0 mm/hr 0.00 in0.0 mm
08:00 AM 41.1°F5.1°C 27.9°F-2.3°C 59% 6.0 mph NE9.7 kmh NE 13.0 mph20.9 kmh 29.84 in1010.5 mb 0.00 in0.0 mm 0.00 in/hr0.0 mm/hr 0.00 in0.0 mm
08:05 AM 41.1°F5.1°C 27.4°F-2.6°C 58% 5.0 mph NE8.0 kmh NE 13.0 mph20.9 kmh 29.84 in1010.5 mb 0.00 in0.0 mm 0.00 in/hr0.0 mm/hr 0.00 in0.0 mm
08:10 AM 41.3°F5.2°C 27.6°F-2.4°C 58% 5.0 mph ENE8.0 kmh ENE 13.0 mph20.9 kmh 29.84 in1010.5 mb 0.00 in0.0 mm 0.00 in/hr0.0 mm/hr 0.00 in0.0 mm
08:15 AM 41.4°F5.2°C 27.7°F-2.4°C 58% 5.0 mph ENE8.0 kmh ENE 13.0 mph20.9 kmh 29.84 in1010.5 mb 0.00 in0.0 mm 0.00 in/hr0.0 mm/hr 0.00 in0.0 mm
08:20 AM 41.6°F5.3°C 27.5°F-2.5°C 57% 6.0 mph NE9.7 kmh NE 13.0 mph20.9 kmh 29.84 in1010.5 mb 0.00 in0.0 mm 0.00 in/hr0.0 mm/hr 0.00 in0.0 mm
08:25 AM 41.8°F5.4°C 28.1°F-2.2°C 58% 6.0 mph ENE9.7 kmh ENE 13.0 mph20.9 kmh 29.84 in1010.5 mb 0.00 in0.0 mm 0.00 in/hr0.0 mm/hr 0.00 in0.0 mm
08:30 AM 42.0°F5.6°C 27.9°F-2.3°C 57% 7.0 mph NE11.3 kmh NE 15.0 mph24.1 kmh 29.84 in1010.5 mb 0.00 in0.0 mm 0.00 in/hr0.0 mm/hr 0.00 in0.0 mm
08:35 AM 42.2°F5.7°C 27.6°F-2.4°C 56% 7.0 mph NE11.3 kmh NE 16.0 mph25.7 kmh 29.84 in1010.5 mb 0.00 in0.0 mm 0.00 in/hr0.0 mm/hr 0.00 in0.0 mm
08:40 AM 42.3°F5.7°C 27.7°F-2.4°C 56% 8.0 mph ENE12.9 kmh ENE 16.0 mph25.7 kmh 29.84 in1010.5 mb 0.00 in0.0 mm 0.00 in/hr0.0 mm/hr 0.00 in0.0 mm
08:45 AM 42.4°F5.8°C 27.8°F-2.3°C 56% 8.0 mph ENE12.9 kmh ENE 15.0 mph24.1 kmh 29.84 in1010.5 mb 0.00 in0.0 mm 0.00 in/hr0.0 mm/hr 0.00 in0.0 mm
08:50 AM 42.5°F5.8°C 27.9°F-2.3°C 56% 6.0 mph ENE9.7 kmh ENE 12.0 mph19.3 kmh 29.83 in1010.2 mb 0.00 in0.0 mm 0.00 in/hr0.0 mm/hr 0.00 in0.0 mm
08:55 AM 42.6°F5.9°C 28.0°F-2.2°C 56% 6.0 mph ENE9.7 kmh ENE 12.0 mph19.3 kmh 29.83 in1010.2 mb 0.00 in0.0 mm 0.00 in/hr0.0 mm/hr 0.00 in0.0 mm
09:00 AM 42.5°F5.8°C 27.9°F-2.3°C 56% 7.0 mph ENE11.3 kmh ENE 15.0 mph24.1 kmh 29.83 in1010.2 mb 0.00 in0.0 mm 0.00 in/hr0.0 mm/hr 0.00 in0.0 mm
09:05 AM 42.5°F5.8°C 27.9°F-2.3°C 56% 7.0 mph ENE11.3 kmh ENE 15.0 mph24.1 kmh 29.84 in1010.5 mb 0.00 in0.0 mm 0.00 in/hr0.0 mm/hr 0.00 in0.0 mm
09:10 AM 42.5°F5.8°C 27.9°F-2.3°C 56% 6.0 mph ENE9.7 kmh ENE 11.0 mph17.7 kmh 29.84 in1010.5 mb 0.00 in0.0 mm 0.00 in/hr0.0 mm/hr 0.00 in0.0 mm
09:15 AM 42.6°F5.9°C 28.0°F-2.2°C 56% 5.0 mph ENE8.0 kmh ENE 13.0 mph20.9 kmh 29.84 in1010.5 mb 0.00 in0.0 mm 0.00 in/hr0.0 mm/hr 0.00 in0.0 mm
09:20 AM 42.7°F5.9°C 27.6°F-2.4°C 55% 5.0 mph ENE8.0 kmh ENE 14.0 mph22.5 kmh 29.84 in1010.5 mb 0.00 in0.0 mm 0.00 in/hr0.0 mm/hr 0.00 in0.0 mm
09:25 AM 43.0°F6.1°C 28.4°F-2.0°C 56% 6.0 mph ENE9.7 kmh ENE 14.0 mph22.5 kmh 29.83 in1010.2 mb 0.00 in0.0 mm 0.00 in/hr0.0 mm/hr 0.00 in0.0 mm
09:30 AM 43.4°F6.3°C 28.3°F-2.1°C 55% 6.0 mph ENE9.7 kmh ENE 13.0 mph20.9 kmh 29.83 in1010.2 mb 0.00 in0.0 mm 0.00 in/hr0.0 mm/hr 0.00 in0.0 mm
09:35 AM 44.0°F6.7°C 28.0°F-2.2°C 53% 6.0 mph ENE9.7 kmh ENE 13.0 mph20.9 kmh 29.83 in1010.2 mb 0.00 in0.0 mm 0.00 in/hr0.0 mm/hr 0.00 in0.0 mm
09:40 AM 44.7°F7.1°C 29.1°F-1.6°C 54% 6.0 mph ENE9.7 kmh ENE 12.0 mph19.3 kmh 29.83 in1010.2 mb 0.00 in0.0 mm 0.00 in/hr0.0 mm/hr 0.00 in0.0 mm
09:45 AM 45.5°F7.5°C 28.4°F-2.0°C 51% 4.0 mph ENE6.4 kmh ENE 11.0 mph17.7 kmh 29.83 in1010.2 mb 0.00 in0.0 mm 0.00 in/hr0.0 mm/hr 0.00 in0.0 mm
09:50 AM 46.3°F7.9°C 29.1°F-1.6°C 51% 4.0 mph ENE6.4 kmh ENE 14.0 mph22.5 kmh 29.82 in1009.8 mb 0.00 in0.0 mm 0.00 in/hr0.0 mm/hr 0.00 in0.0 mm
09:55 AM 46.8°F8.2°C 29.1°F-1.6°C 50% 5.0 mph ENE8.0 kmh ENE 14.0 mph22.5 kmh 29.82 in1009.8 mb 0.00 in0.0 mm 0.00 in/hr0.0 mm/hr 0.00 in0.0 mm
10:00 AM 47.3°F8.5°C 29.6°F-1.3°C 50% 5.0 mph ENE8.0 kmh ENE 12.0 mph19.3 kmh 29.82 in1009.8 mb 0.00 in0.0 mm 0.00 in/hr0.0 mm/hr 0.00 in0.0 mm
10:05 AM 47.8°F8.8°C 29.0°F-1.7°C 48% 4.0 mph NE6.4 kmh NE 14.0 mph22.5 kmh 29.82 in1009.8 mb 0.00 in0.0 mm 0.00 in/hr0.0 mm/hr 0.00 in0.0 mm
10:10 AM 48.0°F8.9°C 29.2°F-1.6°C 48% 6.0 mph NE9.7 kmh NE 14.0 mph22.5 kmh 29.82 in1009.8 mb 0.00 in0.0 mm 0.00 in/hr0.0 mm/hr 0.00 in0.0 mm
10:15 AM 48.2°F9.0°C 29.9°F-1.2°C 49% 8.0 mph NE12.9 kmh NE 18.0 mph29.0 kmh 29.82 in1009.8 mb 0.00 in0.0 mm 0.00 in/hr0.0 mm/hr 0.00 in0.0 mm
10:20 AM 48.3°F9.1°C 29.0°F-1.7°C 47% 8.0 mph NE12.9 kmh NE 18.0 mph29.0 kmh 29.82 in1009.8 mb 0.00 in0.0 mm 0.00 in/hr0.0 mm/hr 0.00 in0.0 mm
10:25 AM 48.3°F9.1°C 29.5°F-1.4°C 48% 7.0 mph NE11.3 kmh NE 17.0 mph27.4 kmh 29.82 in1009.8 mb 0.00 in0.0 mm 0.00 in/hr0.0 mm/hr 0.00 in0.0 mm
10:30 AM 48.2°F9.0°C 28.9°F-1.7°C 47% 6.0 mph NE9.7 kmh NE 12.0 mph19.3 kmh 29.82 in1009.8 mb 0.00 in0.0 mm 0.00 in/hr0.0 mm/hr 0.00 in0.0 mm
10:35 AM 48.3°F9.1°C 29.0°F-1.7°C 47% 5.0 mph NE8.0 kmh NE 14.0 mph22.5 kmh 29.82 in1009.8 mb 0.00 in0.0 mm 0.00 in/hr0.0 mm/hr 0.00 in0.0 mm
10:40 AM 48.4°F9.1°C 29.1°F-1.6°C 47% 6.0 mph NE9.7 kmh NE 14.0 mph22.5 kmh 29.82 in1009.8 mb 0.00 in0.0 mm 0.00 in/hr0.0 mm/hr 0.00 in0.0 mm
10:45 AM 48.7°F9.3°C 29.4°F-1.4°C 47% 5.0 mph NE8.0 kmh NE 13.0 mph20.9 kmh 29.82 in1009.8 mb 0.00 in0.0 mm 0.00 in/hr0.0 mm/hr 0.00 in0.0 mm
10:50 AM 49.2°F9.6°C 29.3°F-1.5°C 46% 4.0 mph NE6.4 kmh NE 13.0 mph20.9 kmh 29.82 in1009.8 mb 0.00 in0.0 mm 0.00 in/hr0.0 mm/hr 0.00 in0.0 mm
10:55 AM 49.6°F9.8°C 29.6°F-1.3°C 46% 5.0 mph NE8.0 kmh NE 15.0 mph24.1 kmh 29.82 in1009.8 mb 0.00 in0.0 mm 0.00 in/hr0.0 mm/hr 0.00 in0.0 mm
11:00 AM 49.8°F9.9°C 29.8°F-1.2°C 46% 7.0 mph NE11.3 kmh NE 15.0 mph24.1 kmh 29.82 in1009.8 mb 0.00 in0.0 mm 0.00 in/hr0.0 mm/hr 0.00 in0.0 mm
11:05 AM 49.9°F9.9°C 29.4°F-1.4°C 45% 7.0 mph NE11.3 kmh NE 15.0 mph24.1 kmh 29.81 in1009.5 mb 0.00 in0.0 mm 0.00 in/hr0.0 mm/hr 0.00 in0.0 mm
11:10 AM 49.9°F9.9°C 29.4°F-1.4°C 45% 5.0 mph NE8.0 kmh NE 14.0 mph22.5 kmh 29.81 in1009.5 mb 0.00 in0.0 mm 0.00 in/hr0.0 mm/hr 0.00 in0.0 mm
11:15 AM 49.7°F9.8°C 29.2°F-1.6°C 45% 5.0 mph NE8.0 kmh NE 13.0 mph20.9 kmh 29.81 in1009.5 mb 0.00 in0.0 mm 0.00 in/hr0.0 mm/hr 0.00 in0.0 mm
11:20 AM 49.5°F9.7°C 29.6°F-1.3°C 46% 6.0 mph NE9.7 kmh NE 13.0 mph20.9 kmh 29.81 in1009.5 mb 0.00 in0.0 mm 0.00 in/hr0.0 mm/hr 0.00 in0.0 mm
11:25 AM 49.3°F9.6°C 29.4°F-1.4°C 46% 5.0 mph ENE8.0 kmh ENE 12.0 mph19.3 kmh 29.81 in1009.5 mb 0.00 in0.0 mm 0.00 in/hr0.0 mm/hr 0.00 in0.0 mm
11:30 AM 49.1°F9.5°C 29.2°F-1.6°C 46% 6.0 mph E9.7 kmh E 12.0 mph19.3 kmh 29.81 in1009.5 mb 0.00 in0.0 mm 0.00 in/hr0.0 mm/hr 0.00 in0.0 mm
11:35 AM 49.3°F9.6°C 29.4°F-1.4°C 46% 5.0 mph E8.0 kmh E 11.0 mph17.7 kmh 29.81 in1009.5 mb 0.00 in0.0 mm 0.00 in/hr0.0 mm/hr 0.00 in0.0 mm
11:40 AM 49.8°F9.9°C 29.8°F-1.2°C 46% 4.0 mph ENE6.4 kmh ENE 10.0 mph16.1 kmh 29.81 in1009.5 mb 0.00 in0.0 mm 0.00 in/hr0.0 mm/hr 0.00 in0.0 mm
11:45 AM 50.3°F10.2°C 29.7°F-1.3°C 45% 5.0 mph ENE8.0 kmh ENE 11.0 mph17.7 kmh 29.80 in1009.1 mb 0.00 in0.0 mm 0.00 in/hr0.0 mm/hr 0.00 in0.0 mm
11:50 AM 50.8°F10.4°C 30.7°F-0.7°C 46% 5.0 mph ENE8.0 kmh ENE 11.0 mph17.7 kmh 29.80 in1009.1 mb 0.00 in0.0 mm 0.00 in/hr0.0 mm/hr 0.00 in0.0 mm
11:55 AM 51.1°F10.6°C 29.4°F-1.4°C 43% 5.0 mph ENE8.0 kmh ENE 14.0 mph22.5 kmh 29.80 in1009.1 mb 0.00 in0.0 mm 0.00 in/hr0.0 mm/hr 0.00 in0.0 mm
12:00 PM 51.1°F10.6°C 29.4°F-1.4°C 43% 7.0 mph ENE11.3 kmh ENE 14.0 mph22.5 kmh 29.80 in1009.1 mb 0.00 in0.0 mm 0.00 in/hr0.0 mm/hr 0.00 in0.0 mm
12:05 PM 51.2°F10.7°C 29.4°F-1.4°C 43% 7.0 mph ENE11.3 kmh ENE 13.0 mph20.9 kmh 29.80 in1009.1 mb 0.00 in0.0 mm 0.00 in/hr0.0 mm/hr 0.00 in0.0 mm
12:10 PM 51.5°F10.8°C 29.7°F-1.3°C 43% 6.0 mph ENE9.7 kmh ENE 14.0 mph22.5 kmh 29.80 in1009.1 mb 0.00 in0.0 mm 0.00 in/hr0.0 mm/hr 0.00 in0.0 mm
12:15 PM 51.7°F10.9°C 29.9°F-1.2°C 43% 6.0 mph ENE9.7 kmh ENE 14.0 mph22.5 kmh 29.80 in1009.1 mb 0.00 in0.0 mm 0.00 in/hr0.0 mm/hr 0.00 in0.0 mm
12:20 PM 51.9°F11.1°C 29.5°F-1.4°C 42% 6.0 mph E9.7 kmh E 13.0 mph20.9 kmh 29.80 in1009.1 mb 0.00 in0.0 mm 0.00 in/hr0.0 mm/hr 0.00 in0.0 mm
12:25 PM 52.0°F11.1°C 29.6°F-1.3°C 42% 7.0 mph E11.3 kmh E 14.0 mph22.5 kmh 29.80 in1009.1 mb 0.00 in0.0 mm 0.00 in/hr0.0 mm/hr 0.00 in0.0 mm
12:30 PM 52.0°F11.1°C 29.6°F-1.3°C 42% 7.0 mph E11.3 kmh E 14.0 mph22.5 kmh 29.79 in1008.8 mb 0.00 in0.0 mm 0.00 in/hr0.0 mm/hr 0.00 in0.0 mm
12:35 PM 52.3°F11.3°C 29.3°F-1.5°C 41% 6.0 mph E9.7 kmh E 11.0 mph17.7 kmh 29.79 in1008.8 mb 0.00 in0.0 mm 0.00 in/hr0.0 mm/hr 0.00 in0.0 mm
12:40 PM 52.3°F11.3°C 29.3°F-1.5°C 41% 6.0 mph ENE9.7 kmh ENE 12.0 mph19.3 kmh 29.79 in1008.8 mb 0.00 in0.0 mm 0.00 in/hr0.0 mm/hr 0.00 in0.0 mm
12:45 PM 52.5°F11.4°C 29.5°F-1.4°C 41% 6.0 mph ENE9.7 kmh ENE 12.0 mph19.3 kmh 29.79 in1008.8 mb 0.00 in0.0 mm 0.00 in/hr0.0 mm/hr 0.00 in0.0 mm
12:50 PM 52.6°F11.4°C 30.1°F-1.1°C 42% 5.0 mph E8.0 kmh E 9.0 mph14.5 kmh 29.79 in1008.8 mb 0.00 in0.0 mm 0.00 in/hr0.0 mm/hr 0.00 in0.0 mm
12:55 PM 52.6°F11.4°C 29.5°F-1.4°C 41% 5.0 mph E8.0 kmh E 12.0 mph19.3 kmh 29.79 in1008.8 mb 0.00 in0.0 mm 0.00 in/hr0.0 mm/hr 0.00 in0.0 mm
01:00 PM 52.5°F11.4°C 30.0°F-1.1°C 42% 5.0 mph ENE8.0 kmh ENE 12.0 mph19.3 kmh 29.78 in1008.5 mb 0.00 in0.0 mm 0.00 in/hr0.0 mm/hr 0.00 in0.0 mm
01:05 PM 52.5°F11.4°C 31.2°F-0.4°C 44% 5.0 mph ENE8.0 kmh ENE 11.0 mph17.7 kmh 29.78 in1008.5 mb 0.00 in0.0 mm 0.00 in/hr0.0 mm/hr 0.00 in0.0 mm
01:10 PM 52.5°F11.4°C 30.0°F-1.1°C 42% 5.0 mph E8.0 kmh E 13.0 mph20.9 kmh 29.78 in1008.5 mb 0.00 in0.0 mm 0.00 in/hr0.0 mm/hr 0.00 in0.0 mm
01:15 PM 52.3°F11.3°C 29.9°F-1.2°C 42% 5.0 mph E8.0 kmh E 13.0 mph20.9 kmh 29.78 in1008.5 mb 0.00 in0.0 mm 0.00 in/hr0.0 mm/hr 0.00 in0.0 mm
01:20 PM 52.2°F11.2°C 29.8°F-1.2°C 42% 4.0 mph ENE6.4 kmh ENE 11.0 mph17.7 kmh 29.78 in1008.5 mb 0.00 in0.0 mm 0.00 in/hr0.0 mm/hr 0.00 in0.0 mm
01:25 PM 52.1°F11.2°C 29.7°F-1.3°C 42% 5.0 mph ENE8.0 kmh ENE 14.0 mph22.5 kmh 29.78 in1008.5 mb 0.00 in0.0 mm 0.00 in/hr0.0 mm/hr 0.00 in0.0 mm
01:30 PM 52.0°F11.1°C 29.6°F-1.3°C 42% 7.0 mph ENE11.3 kmh ENE 14.0 mph22.5 kmh 29.78 in1008.5 mb 0.00 in0.0 mm 0.00 in/hr0.0 mm/hr 0.00 in0.0 mm
01:35 PM 52.0°F11.1°C 29.6°F-1.3°C 42% 6.0 mph E9.7 kmh E 14.0 mph22.5 kmh 29.78 in1008.5 mb 0.00 in0.0 mm 0.00 in/hr0.0 mm/hr 0.00 in0.0 mm
01:40 PM 52.2°F11.2°C 29.2°F-1.6°C 41% 5.0 mph E8.0 kmh E 14.0 mph22.5 kmh 29.78 in1008.5 mb 0.00 in0.0 mm 0.00 in/hr0.0 mm/hr 0.00 in0.0 mm
01:45 PM 52.4°F11.3°C 29.4°F-1.4°C 41% 6.0 mph E9.7 kmh E 11.0 mph17.7 kmh 29.77 in1008.1 mb 0.00 in0.0 mm 0.00 in/hr0.0 mm/hr 0.00 in0.0 mm
01:50 PM 52.6°F11.4°C 29.5°F-1.4°C 41% 5.0 mph E8.0 kmh E 12.0 mph19.3 kmh 29.77 in1008.1 mb 0.00 in0.0 mm 0.00 in/hr0.0 mm/hr 0.00 in0.0 mm
01:55 PM 52.8°F11.6°C 30.9°F-0.6°C 43% 5.0 mph ENE8.0 kmh ENE 12.0 mph19.3 kmh 29.77 in1008.1 mb 0.00 in0.0 mm 0.00 in/hr0.0 mm/hr 0.00 in0.0 mm
02:00 PM 52.9°F11.6°C 30.4°F-0.9°C 42% 4.0 mph E6.4 kmh E 10.0 mph16.1 kmh 29.77 in1008.1 mb 0.00 in0.0 mm 0.00 in/hr0.0 mm/hr 0.00 in0.0 mm
02:05 PM 52.9°F11.6°C 29.8°F-1.2°C 41% 5.0 mph E8.0 kmh E 11.0 mph17.7 kmh 29.77 in1008.1 mb 0.00 in0.0 mm 0.00 in/hr0.0 mm/hr 0.00 in0.0 mm
02:10 PM 53.0°F11.7°C 30.5°F-0.8°C 42% 5.0 mph E8.0 kmh E 11.0 mph17.7 kmh 29.77 in1008.1 mb 0.00 in0.0 mm 0.00 in/hr0.0 mm/hr 0.00 in0.0 mm
02:15 PM 53.1°F11.7°C 29.4°F-1.4°C 40% 4.0 mph E6.4 kmh E 11.0 mph17.7 kmh 29.77 in1008.1 mb 0.00 in0.0 mm 0.00 in/hr0.0 mm/hr 0.00 in0.0 mm
02:20 PM 52.8°F11.6°C 30.3°F-0.9°C 42% 4.0 mph E6.4 kmh E 11.0 mph17.7 kmh 29.76 in1007.8 mb 0.00 in0.0 mm 0.00 in/hr0.0 mm/hr 0.00 in0.0 mm
02:25 PM 52.4°F11.3°C 30.0°F-1.1°C 42% 3.0 mph E4.8 kmh E 9.0 mph14.5 kmh 29.76 in1007.8 mb 0.00 in0.0 mm 0.00 in/hr0.0 mm/hr 0.00 in0.0 mm
02:30 PM 52.4°F11.3°C 29.4°F-1.4°C 41% 3.0 mph ENE4.8 kmh ENE 9.0 mph14.5 kmh 29.76 in1007.8 mb 0.00 in0.0 mm 0.00 in/hr0.0 mm/hr 0.00 in0.0 mm
02:35 PM 52.6°F11.4°C 29.5°F-1.4°C 41% 3.0 mph NE4.8 kmh NE 9.0 mph14.5 kmh 29.76 in1007.8 mb 0.00 in0.0 mm 0.00 in/hr0.0 mm/hr 0.00 in0.0 mm
02:40 PM 52.8°F11.6°C 30.3°F-0.9°C 42% 3.0 mph NE4.8 kmh NE 9.0 mph14.5 kmh 29.76 in1007.8 mb 0.00 in0.0 mm 0.00 in/hr0.0 mm/hr 0.00 in0.0 mm
02:45 PM 53.2°F11.8°C 29.5°F-1.4°C 40% 3.0 mph NE4.8 kmh NE 12.0 mph19.3 kmh 29.75 in1007.5 mb 0.00 in0.0 mm 0.00 in/hr0.0 mm/hr 0.00 in0.0 mm
02:50 PM 53.6°F12.0°C 30.4°F-0.9°C 41% 4.0 mph NE6.4 kmh NE 12.0 mph19.3 kmh 29.75 in1007.5 mb 0.00 in0.0 mm 0.00 in/hr0.0 mm/hr 0.00 in0.0 mm
02:55 PM 53.7°F12.1°C 29.3°F-1.5°C 39% 4.0 mph ENE6.4 kmh ENE 12.0 mph19.3 kmh 29.75 in1007.5 mb 0.00 in0.0 mm 0.00 in/hr0.0 mm/hr 0.00 in0.0 mm
03:00 PM 53.8°F12.1°C 30.0°F-1.1°C 40% 5.0 mph E8.0 kmh E 12.0 mph19.3 kmh 29.75 in1007.5 mb 0.00 in0.0 mm 0.00 in/hr0.0 mm/hr 0.00 in0.0 mm
03:05 PM 54.0°F12.2°C 30.2°F-1.0°C 40% 5.0 mph ENE8.0 kmh ENE 11.0 mph17.7 kmh 29.75 in1007.5 mb 0.00 in0.0 mm 0.00 in/hr0.0 mm/hr 0.00 in0.0 mm
03:10 PM 54.0°F12.2°C 28.9°F-1.7°C 38% 5.0 mph ENE8.0 kmh ENE 11.0 mph17.7 kmh 29.75 in1007.5 mb 0.00 in0.0 mm 0.00 in/hr0.0 mm/hr 0.00 in0.0 mm
03:15 PM 54.0°F12.2°C 28.3°F-2.1°C 37% 5.0 mph ENE8.0 kmh ENE 10.0 mph16.1 kmh 29.75 in1007.5 mb 0.00 in0.0 mm 0.00 in/hr0.0 mm/hr 0.00 in0.0 mm
03:20 PM 54.2°F12.3°C 29.8°F-1.2°C 39% 4.0 mph ENE6.4 kmh ENE 11.0 mph17.7 kmh 29.74 in1007.1 mb 0.00 in0.0 mm 0.00 in/hr0.0 mm/hr 0.00 in0.0 mm
03:25 PM 54.2°F12.3°C 28.5°F-1.9°C 37% 4.0 mph NE6.4 kmh NE 11.0 mph17.7 kmh 29.74 in1007.1 mb 0.00 in0.0 mm 0.00 in/hr0.0 mm/hr 0.00 in0.0 mm
03:30 PM 54.2°F12.3°C 27.8°F-2.3°C 36% 5.0 mph NE8.0 kmh NE 12.0 mph19.3 kmh 29.74 in1007.1 mb 0.00 in0.0 mm 0.00 in/hr0.0 mm/hr 0.00 in0.0 mm
03:35 PM 54.1°F12.3°C 28.4°F-2.0°C 37% 6.0 mph NE9.7 kmh NE 12.0 mph19.3 kmh 29.74 in1007.1 mb 0.00 in0.0 mm 0.00 in/hr0.0 mm/hr 0.00 in0.0 mm
03:40 PM 54.1°F12.3°C 29.0°F-1.7°C 38% 5.0 mph ENE8.0 kmh ENE 12.0 mph19.3 kmh 29.74 in1007.1 mb 0.00 in0.0 mm 0.00 in/hr0.0 mm/hr 0.00 in0.0 mm
03:45 PM 54.1°F12.3°C 28.4°F-2.0°C 37% 5.0 mph E8.0 kmh E 13.0 mph20.9 kmh 29.73 in1006.8 mb 0.00 in0.0 mm 0.00 in/hr0.0 mm/hr 0.00 in0.0 mm
03:50 PM 54.1°F12.3°C 29.0°F-1.7°C 38% 5.0 mph E8.0 kmh E 13.0 mph20.9 kmh 29.73 in1006.8 mb 0.00 in0.0 mm 0.00 in/hr0.0 mm/hr 0.00 in0.0 mm
03:55 PM 53.9°F12.2°C 28.2°F-2.1°C 37% 5.0 mph E8.0 kmh E 15.0 mph24.1 kmh 29.73 in1006.8 mb 0.00 in0.0 mm 0.00 in/hr0.0 mm/hr 0.00 in0.0 mm
04:00 PM 53.6°F12.0°C 27.9°F-2.3°C 37% 6.0 mph E9.7 kmh E 15.0 mph24.1 kmh 29.73 in1006.8 mb 0.00 in0.0 mm 0.00 in/hr0.0 mm/hr 0.00 in0.0 mm
04:05 PM 53.3°F11.8°C 28.9°F-1.7°C 39% 6.0 mph E9.7 kmh E 12.0 mph19.3 kmh 29.73 in1006.8 mb 0.00 in0.0 mm 0.00 in/hr0.0 mm/hr 0.00 in0.0 mm
04:10 PM 53.1°F11.7°C 29.4°F-1.4°C 40% 6.0 mph E9.7 kmh E 12.0 mph19.3 kmh 29.73 in1006.8 mb 0.00 in0.0 mm 0.00 in/hr0.0 mm/hr 0.00 in0.0 mm
04:15 PM 52.9°F11.6°C 29.2°F-1.6°C 40% 5.0 mph E8.0 kmh E 14.0 mph22.5 kmh 29.73 in1006.8 mb 0.00 in0.0 mm 0.00 in/hr0.0 mm/hr 0.00 in0.0 mm
04:20 PM 52.7°F11.5°C 29.0°F-1.7°C 40% 7.0 mph E11.3 kmh E 14.0 mph22.5 kmh 29.73 in1006.8 mb 0.00 in0.0 mm 0.00 in/hr0.0 mm/hr 0.00 in0.0 mm
04:25 PM 52.4°F11.3°C 28.1°F-2.2°C 39% 9.0 mph E14.5 kmh E 14.0 mph22.5 kmh 29.73 in1006.8 mb 0.00 in0.0 mm 0.00 in/hr0.0 mm/hr 0.00 in0.0 mm
04:30 PM 52.3°F11.3°C 28.1°F-2.2°C 39% 9.0 mph E14.5 kmh E 15.0 mph24.1 kmh 29.73 in1006.8 mb 0.00 in0.0 mm 0.00 in/hr0.0 mm/hr 0.00 in0.0 mm
04:35 PM 52.2°F11.2°C 28.6°F-1.9°C 40% 7.0 mph E11.3 kmh E 15.0 mph24.1 kmh 29.73 in1006.8 mb 0.00 in0.0 mm 0.00 in/hr0.0 mm/hr 0.00 in0.0 mm
04:40 PM 52.2°F11.2°C 30.4°F-0.9°C 43% 6.0 mph E9.7 kmh E 15.0 mph24.1 kmh 29.73 in1006.8 mb 0.00 in0.0 mm 0.00 in/hr0.0 mm/hr 0.00 in0.0 mm
04:45 PM 52.1°F11.2°C 29.1°F-1.6°C 41% 7.0 mph ENE11.3 kmh ENE 14.0 mph22.5 kmh 29.73 in1006.8 mb 0.00 in0.0 mm 0.00 in/hr0.0 mm/hr 0.00 in0.0 mm
04:50 PM 52.3°F11.3°C 28.7°F-1.8°C 40% 8.0 mph ENE12.9 kmh ENE 16.0 mph25.7 kmh 29.73 in1006.8 mb 0.00 in0.0 mm 0.00 in/hr0.0 mm/hr 0.00 in0.0 mm
04:55 PM 52.2°F11.2°C 29.2°F-1.6°C 41% 7.0 mph E11.3 kmh E 16.0 mph25.7 kmh 29.72 in1006.4 mb 0.00 in0.0 mm 0.00 in/hr0.0 mm/hr 0.00 in0.0 mm
05:00 PM 52.1°F11.2°C 29.1°F-1.6°C 41% 7.0 mph E11.3 kmh E 15.0 mph24.1 kmh 29.72 in1006.4 mb 0.00 in0.0 mm 0.00 in/hr0.0 mm/hr 0.00 in0.0 mm
05:05 PM 52.1°F11.2°C 28.5°F-1.9°C 40% 7.0 mph E11.3 kmh E 15.0 mph24.1 kmh 29.72 in1006.4 mb 0.00 in0.0 mm 0.00 in/hr0.0 mm/hr 0.00 in0.0 mm
05:10 PM 52.0°F11.1°C 28.4°F-2.0°C 40% 8.0 mph E12.9 kmh E 16.0 mph25.7 kmh 29.72 in1006.4 mb 0.00 in0.0 mm 0.00 in/hr0.0 mm/hr 0.00 in0.0 mm
05:15 PM 51.9°F11.1°C 28.3°F-2.1°C 40% 8.0 mph ENE12.9 kmh ENE 16.0 mph25.7 kmh 29.72 in1006.4 mb 0.00 in0.0 mm 0.00 in/hr0.0 mm/hr 0.00 in0.0 mm
05:20 PM 51.8°F11.0°C 28.8°F-1.8°C 41% 8.0 mph ENE12.9 kmh ENE 16.0 mph25.7 kmh 29.72 in1006.4 mb 0.00 in0.0 mm 0.00 in/hr0.0 mm/hr 0.00 in0.0 mm
05:25 PM 51.7°F10.9°C 28.1°F-2.2°C 40% 9.0 mph ENE14.5 kmh ENE 16.0 mph25.7 kmh 29.72 in1006.4 mb 0.00 in0.0 mm 0.00 in/hr0.0 mm/hr 0.00 in0.0 mm
05:30 PM 51.4°F10.8°C 28.5°F-1.9°C 41% 9.0 mph ENE14.5 kmh ENE 16.0 mph25.7 kmh 29.72 in1006.4 mb 0.00 in0.0 mm 0.00 in/hr0.0 mm/hr 0.00 in0.0 mm
05:35 PM 51.2°F10.7°C 28.3°F-2.1°C 41% 9.0 mph E14.5 kmh E 15.0 mph24.1 kmh 29.71 in1006.1 mb 0.00 in0.0 mm 0.00 in/hr0.0 mm/hr 0.00 in0.0 mm
05:40 PM 51.0°F10.6°C 29.3°F-1.5°C 43% 9.0 mph E14.5 kmh E 15.0 mph24.1 kmh 29.72 in1006.4 mb 0.00 in0.0 mm 0.00 in/hr0.0 mm/hr 0.00 in0.0 mm
05:45 PM 50.7°F10.4°C 28.4°F-2.0°C 42% 7.0 mph ENE11.3 kmh ENE 15.0 mph24.1 kmh 29.72 in1006.4 mb 0.00 in0.0 mm 0.00 in/hr0.0 mm/hr 0.00 in0.0 mm
05:50 PM 50.5°F10.3°C 28.2°F-2.1°C 42% 7.0 mph ENE11.3 kmh ENE 15.0 mph24.1 kmh 29.72 in1006.4 mb 0.00 in0.0 mm 0.00 in/hr0.0 mm/hr 0.00 in0.0 mm
05:55 PM 50.4°F10.2°C 28.7°F-1.8°C 43% 7.0 mph ENE11.3 kmh ENE 13.0 mph20.9 kmh 29.72 in1006.4 mb 0.00 in0.0 mm 0.00 in/hr0.0 mm/hr 0.00 in0.0 mm
06:00 PM 50.3°F10.2°C 28.6°F-1.9°C 43% 7.0 mph E11.3 kmh E 15.0 mph24.1 kmh 29.72 in1006.4 mb 0.00 in0.0 mm 0.00 in/hr0.0 mm/hr 0.00 in0.0 mm
06:05 PM 50.0°F10.0°C 28.4°F-2.0°C 43% 6.0 mph E9.7 kmh E 15.0 mph24.1 kmh 29.72 in1006.4 mb 0.00 in0.0 mm 0.00 in/hr0.0 mm/hr 0.00 in0.0 mm
06:10 PM 49.7°F9.8°C 28.6°F-1.9°C 44% 6.0 mph E9.7 kmh E 14.0 mph22.5 kmh 29.72 in1006.4 mb 0.00 in0.0 mm 0.00 in/hr0.0 mm/hr 0.00 in0.0 mm
06:15 PM 49.4°F9.7°C 27.8°F-2.3°C 43% 7.0 mph E11.3 kmh E 15.0 mph24.1 kmh 29.72 in1006.4 mb 0.00 in0.0 mm 0.00 in/hr0.0 mm/hr 0.00 in0.0 mm
06:20 PM 49.2°F9.6°C 27.6°F-2.4°C 43% 8.0 mph E12.9 kmh E 15.0 mph24.1 kmh 29.71 in1006.1 mb 0.00 in0.0 mm 0.00 in/hr0.0 mm/hr 0.00 in0.0 mm
06:25 PM 49.1°F9.5°C 28.1°F-2.2°C 44% 7.0 mph E11.3 kmh E 14.0 mph22.5 kmh 29.71 in1006.1 mb 0.00 in0.0 mm 0.00 in/hr0.0 mm/hr 0.00 in0.0 mm
06:30 PM 48.9°F9.4°C 28.5°F-1.9°C 45% 6.0 mph E9.7 kmh E 17.0 mph27.4 kmh 29.71 in1006.1 mb 0.00 in0.0 mm 0.00 in/hr0.0 mm/hr 0.00 in0.0 mm
06:35 PM 48.7°F9.3°C 27.7°F-2.4°C 44% 8.0 mph ENE12.9 kmh ENE 17.0 mph27.4 kmh 29.71 in1006.1 mb 0.00 in0.0 mm 0.00 in/hr0.0 mm/hr 0.00 in0.0 mm
06:40 PM 48.5°F9.2°C 28.1°F-2.2°C 45% 10.0 mph ENE16.1 kmh ENE 18.0 mph29.0 kmh 29.71 in1006.1 mb 0.00 in0.0 mm 0.00 in/hr0.0 mm/hr 0.00 in0.0 mm
06:45 PM 48.2°F9.0°C 27.8°F-2.3°C 45% 9.0 mph ENE14.5 kmh ENE 18.0 mph29.0 kmh 29.71 in1006.1 mb 0.00 in0.0 mm 0.00 in/hr0.0 mm/hr 0.00 in0.0 mm
06:50 PM 47.9°F8.8°C 27.6°F-2.4°C 45% 6.0 mph E9.7 kmh E 17.0 mph27.4 kmh 29.71 in1006.1 mb 0.00 in0.0 mm 0.00 in/hr0.0 mm/hr 0.00 in0.0 mm
06:55 PM 47.7°F8.7°C 27.4°F-2.6°C 45% 7.0 mph ENE11.3 kmh ENE 17.0 mph27.4 kmh 29.71 in1006.1 mb 0.00 in0.0 mm 0.00 in/hr0.0 mm/hr 0.00 in0.0 mm
07:00 PM 47.7°F8.7°C 27.9°F-2.3°C 46% 8.0 mph ENE12.9 kmh ENE 15.0 mph24.1 kmh 29.71 in1006.1 mb 0.00 in0.0 mm 0.00 in/hr0.0 mm/hr 0.00 in0.0 mm
07:05 PM 47.4°F8.6°C 27.6°F-2.4°C 46% 7.0 mph ENE11.3 kmh ENE 15.0 mph24.1 kmh 29.72 in1006.4 mb 0.00 in0.0 mm 0.00 in/hr0.0 mm/hr 0.00 in0.0 mm
07:10 PM 47.2°F8.4°C 28.0°F-2.2°C 47% 6.0 mph ENE9.7 kmh ENE 15.0 mph24.1 kmh 29.71 in1006.1 mb 0.00 in0.0 mm 0.00 in/hr0.0 mm/hr 0.00 in0.0 mm
07:15 PM 46.9°F8.3°C 28.2°F-2.1°C 48% 6.0 mph ENE9.7 kmh ENE 12.0 mph19.3 kmh 29.71 in1006.1 mb 0.00 in0.0 mm 0.00 in/hr0.0 mm/hr 0.00 in0.0 mm
07:20 PM 46.7°F8.2°C 28.0°F-2.2°C 48% 6.0 mph ENE9.7 kmh ENE 12.0 mph19.3 kmh 29.71 in1006.1 mb 0.00 in0.0 mm 0.00 in/hr0.0 mm/hr 0.00 in0.0 mm
07:25 PM 46.5°F8.1°C 27.8°F-2.3°C 48% 5.0 mph ENE8.0 kmh ENE 12.0 mph19.3 kmh 29.71 in1006.1 mb 0.00 in0.0 mm 0.00 in/hr0.0 mm/hr 0.00 in0.0 mm
07:30 PM 46.3°F7.9°C 27.7°F-2.4°C 48% 5.0 mph ENE8.0 kmh ENE 11.0 mph17.7 kmh 29.71 in1006.1 mb 0.00 in0.0 mm 0.00 in/hr0.0 mm/hr 0.00 in0.0 mm
07:35 PM 46.0°F7.8°C 27.9°F-2.3°C 49% 6.0 mph ENE9.7 kmh ENE 13.0 mph20.9 kmh 29.71 in1006.1 mb 0.00 in0.0 mm 0.00 in/hr0.0 mm/hr 0.00 in0.0 mm
07:40 PM 45.9°F7.7°C 27.8°F-2.3°C 49% 6.0 mph NE9.7 kmh NE 13.0 mph20.9 kmh 29.71 in1006.1 mb 0.00 in0.0 mm 0.00 in/hr0.0 mm/hr 0.00 in0.0 mm
07:45 PM 45.7°F7.6°C 27.6°F-2.4°C 49% 5.0 mph NE8.0 kmh NE 12.0 mph19.3 kmh 29.71 in1006.1 mb 0.00 in0.0 mm 0.00 in/hr0.0 mm/hr 0.00 in0.0 mm
07:50 PM 45.4°F7.4°C 27.3°F-2.6°C 49% 5.0 mph NE8.0 kmh NE 13.0 mph20.9 kmh 29.71 in1006.1 mb 0.00 in0.0 mm 0.00 in/hr0.0 mm/hr 0.00 in0.0 mm
07:55 PM 45.2°F7.3°C 27.2°F-2.7°C 49% 5.0 mph NE8.0 kmh NE 13.0 mph20.9 kmh 29.71 in1006.1 mb 0.00 in0.0 mm 0.00 in/hr0.0 mm/hr 0.00 in0.0 mm
08:00 PM 45.0°F7.2°C 27.0°F-2.8°C 49% 5.0 mph NE8.0 kmh NE 11.0 mph17.7 kmh 29.71 in1006.1 mb 0.00 in0.0 mm 0.00 in/hr0.0 mm/hr 0.00 in0.0 mm
08:05 PM 45.0°F7.2°C 27.5°F-2.5°C 50% 4.0 mph NE6.4 kmh NE 11.0 mph17.7 kmh 29.71 in1006.1 mb 0.00 in0.0 mm 0.00 in/hr0.0 mm/hr 0.00 in0.0 mm
08:10 PM 44.7°F7.1°C 27.2°F-2.7°C 50% 4.0 mph NE6.4 kmh NE 11.0 mph17.7 kmh 29.71 in1006.1 mb 0.00 in0.0 mm 0.00 in/hr0.0 mm/hr 0.00 in0.0 mm
08:15 PM 44.4°F6.9°C 26.9°F-2.8°C 50% 5.0 mph NE8.0 kmh NE 16.0 mph25.7 kmh 29.71 in1006.1 mb 0.00 in0.0 mm 0.00 in/hr0.0 mm/hr 0.00 in0.0 mm
08:20 PM 44.2°F6.8°C 26.7°F-2.9°C 50% 7.0 mph NE11.3 kmh NE 17.0 mph27.4 kmh 29.71 in1006.1 mb 0.00 in0.0 mm 0.00 in/hr0.0 mm/hr 0.00 in0.0 mm
08:25 PM 44.0°F6.7°C 27.5°F-2.5°C 52% 6.0 mph NE9.7 kmh NE 17.0 mph27.4 kmh 29.71 in1006.1 mb 0.00 in0.0 mm 0.00 in/hr0.0 mm/hr 0.00 in0.0 mm
08:30 PM 43.7°F6.5°C 27.7°F-2.4°C 53% 4.0 mph NE6.4 kmh NE 9.0 mph14.5 kmh 29.72 in1006.4 mb 0.00 in0.0 mm 0.00 in/hr0.0 mm/hr 0.00 in0.0 mm
08:35 PM 43.2°F6.2°C 27.7°F-2.4°C 54% 3.0 mph NE4.8 kmh NE 10.0 mph16.1 kmh 29.71 in1006.1 mb 0.00 in0.0 mm 0.00 in/hr0.0 mm/hr 0.00 in0.0 mm
08:40 PM 42.8°F6.0°C 27.7°F-2.4°C 55% 3.0 mph NNE4.8 kmh NNE 11.0 mph17.7 kmh 29.71 in1006.1 mb 0.00 in0.0 mm 0.00 in/hr0.0 mm/hr 0.00 in0.0 mm
08:45 PM 42.3°F5.7°C 27.7°F-2.4°C 56% 4.0 mph NNE6.4 kmh NNE 11.0 mph17.7 kmh 29.72 in1006.4 mb 0.00 in0.0 mm 0.00 in/hr0.0 mm/hr 0.00 in0.0 mm
08:50 PM 41.9°F5.5°C 27.3°F-2.6°C 56% 3.0 mph NE4.8 kmh NE 11.0 mph17.7 kmh 29.72 in1006.4 mb 0.00 in0.0 mm 0.00 in/hr0.0 mm/hr 0.00 in0.0 mm
08:55 PM 41.5°F5.3°C 27.8°F-2.3°C 58% 3.0 mph NNE4.8 kmh NNE 9.0 mph14.5 kmh 29.72 in1006.4 mb 0.00 in0.0 mm 0.00 in/hr0.0 mm/hr 0.00 in0.0 mm
09:00 PM 41.1°F5.1°C 27.4°F-2.6°C 58% 3.0 mph NNE4.8 kmh NNE 9.0 mph14.5 kmh 29.72 in1006.4 mb 0.00 in0.0 mm 0.00 in/hr0.0 mm/hr 0.00 in0.0 mm
09:05 PM 40.8°F4.9°C 27.6°F-2.4°C 59% 3.0 mph NNE4.8 kmh NNE 8.0 mph12.9 kmh 29.71 in1006.1 mb 0.00 in0.0 mm 0.00 in/hr0.0 mm/hr 0.00 in0.0 mm
09:10 PM 40.4°F4.7°C 27.2°F-2.7°C 59% 2.0 mph NNE3.2 kmh NNE 7.0 mph11.3 kmh 29.72 in1006.4 mb 0.00 in0.0 mm 0.00 in/hr0.0 mm/hr 0.00 in0.0 mm
09:15 PM 40.0°F4.4°C 26.8°F-2.9°C 59% 2.0 mph NE3.2 kmh NE 7.0 mph11.3 kmh 29.72 in1006.4 mb 0.00 in0.0 mm 0.00 in/hr0.0 mm/hr 0.00 in0.0 mm
09:20 PM 39.6°F4.2°C 26.8°F-2.9°C 60% 1.0 mph NNE1.6 kmh NNE 5.0 mph8.0 kmh 29.72 in1006.4 mb 0.00 in0.0 mm 0.00 in/hr0.0 mm/hr 0.00 in0.0 mm
09:25 PM 39.2°F4.0°C 26.9°F-2.8°C 61% 2.0 mph NNE3.2 kmh NNE 9.0 mph14.5 kmh 29.72 in1006.4 mb 0.00 in0.0 mm 0.00 in/hr0.0 mm/hr 0.00 in0.0 mm
09:30 PM 38.7°F3.7°C 26.8°F-2.9°C 62% 2.0 mph NNE3.2 kmh NNE 9.0 mph14.5 kmh 29.72 in1006.4 mb 0.00 in0.0 mm 0.00 in/hr0.0 mm/hr 0.00 in0.0 mm
09:35 PM 38.4°F3.6°C 26.5°F-3.1°C 62% 2.0 mph NNE3.2 kmh NNE 6.0 mph9.7 kmh 29.72 in1006.4 mb 0.00 in0.0 mm 0.00 in/hr0.0 mm/hr 0.00 in0.0 mm
09:40 PM 38.0°F3.3°C 26.5°F-3.1°C 63% 2.0 mph NNE3.2 kmh NNE 6.0 mph9.7 kmh 29.72 in1006.4 mb 0.00 in0.0 mm 0.00 in/hr0.0 mm/hr 0.00 in0.0 mm
09:45 PM 37.7°F3.2°C 26.6°F-3.0°C 64% 2.0 mph NNE3.2 kmh NNE 6.0 mph9.7 kmh 29.72 in1006.4 mb 0.00 in0.0 mm 0.00 in/hr0.0 mm/hr 0.00 in0.0 mm
09:50 PM 37.5°F3.1°C 26.0°F-3.3°C 63% 3.0 mph NNE4.8 kmh NNE 5.0 mph8.0 kmh 29.71 in1006.1 mb 0.00 in0.0 mm 0.00 in/hr0.0 mm/hr 0.00 in0.0 mm
09:55 PM 37.2°F2.9°C 26.5°F-3.1°C 65% 2.0 mph NNE3.2 kmh NNE 5.0 mph8.0 kmh 29.71 in1006.1 mb 0.00 in0.0 mm 0.00 in/hr0.0 mm/hr 0.00 in0.0 mm
10:00 PM 36.9°F2.7°C 26.6°F-3.0°C 66% 1.0 mph N1.6 kmh N 5.0 mph8.0 kmh 29.71 in1006.1 mb 0.00 in0.0 mm 0.00 in/hr0.0 mm/hr 0.00 in0.0 mm
10:05 PM 36.5°F2.5°C 26.6°F-3.0°C 67% 2.0 mph NNE3.2 kmh NNE 5.0 mph8.0 kmh 29.71 in1006.1 mb 0.00 in0.0 mm 0.00 in/hr0.0 mm/hr 0.00 in0.0 mm
10:10 PM 36.1°F2.3°C 26.2°F-3.2°C 67% 2.0 mph NNE3.2 kmh NNE 5.0 mph8.0 kmh 29.71 in1006.1 mb 0.00 in0.0 mm 0.00 in/hr0.0 mm/hr 0.00 in0.0 mm
10:15 PM 35.8°F2.1°C 26.3°F-3.2°C 68% 2.0 mph NNE3.2 kmh NNE 7.0 mph11.3 kmh 29.72 in1006.4 mb 0.00 in0.0 mm 0.00 in/hr0.0 mm/hr 0.00 in0.0 mm
10:20 PM 35.5°F1.9°C 26.7°F-2.9°C 70% 3.0 mph NNE4.8 kmh NNE 7.0 mph11.3 kmh 29.71 in1006.1 mb 0.00 in0.0 mm 0.00 in/hr0.0 mm/hr 0.00 in0.0 mm
10:25 PM 35.3°F1.8°C 26.5°F-3.1°C 70% 3.0 mph NNE4.8 kmh NNE 9.0 mph14.5 kmh 29.72 in1006.4 mb 0.00 in0.0 mm 0.00 in/hr0.0 mm/hr 0.00 in0.0 mm
10:30 PM 35.1°F1.7°C 26.3°F-3.2°C 70% 3.0 mph NNE4.8 kmh NNE 9.0 mph14.5 kmh 29.71 in1006.1 mb 0.00 in0.0 mm 0.00 in/hr0.0 mm/hr 0.00 in0.0 mm
10:35 PM 34.9°F1.6°C 26.1°F-3.3°C 70% 3.0 mph NNE4.8 kmh NNE 6.0 mph9.7 kmh 29.71 in1006.1 mb 0.00 in0.0 mm 0.00 in/hr0.0 mm/hr 0.00 in0.0 mm
10:40 PM 34.8°F1.6°C 26.4°F-3.1°C 71% 3.0 mph NNE4.8 kmh NNE 6.0 mph9.7 kmh 29.71 in1006.1 mb 0.00 in0.0 mm 0.00 in/hr0.0 mm/hr 0.00 in0.0 mm
10:45 PM 34.7°F1.5°C 25.9°F-3.4°C 70% 3.0 mph NNE4.8 kmh NNE 8.0 mph12.9 kmh 29.71 in1006.1 mb 0.00 in0.0 mm 0.00 in/hr0.0 mm/hr 0.00 in0.0 mm
10:50 PM 34.6°F1.4°C 26.2°F-3.2°C 71% 3.0 mph NNE4.8 kmh NNE 9.0 mph14.5 kmh 29.71 in1006.1 mb 0.00 in0.0 mm 0.00 in/hr0.0 mm/hr 0.00 in0.0 mm
10:55 PM 34.6°F1.4°C 26.2°F-3.2°C 71% 4.0 mph NNE6.4 kmh NNE 9.0 mph14.5 kmh 29.71 in1006.1 mb 0.00 in0.0 mm 0.00 in/hr0.0 mm/hr 0.00 in0.0 mm
11:00 PM 34.7°F1.5°C 25.9°F-3.4°C 70% 4.0 mph NNE6.4 kmh NNE 10.0 mph16.1 kmh 29.71 in1006.1 mb 0.00 in0.0 mm 0.00 in/hr0.0 mm/hr 0.00 in0.0 mm
11:05 PM 34.8°F1.6°C 26.0°F-3.3°C 70% 4.0 mph NNE6.4 kmh NNE 10.0 mph16.1 kmh 29.71 in1006.1 mb 0.00 in0.0 mm 0.00 in/hr0.0 mm/hr 0.00 in0.0 mm
11:10 PM 35.0°F1.7°C 26.2°F-3.2°C 70% 4.0 mph NE6.4 kmh NE 9.0 mph14.5 kmh 29.71 in1006.1 mb 0.00 in0.0 mm 0.00 in/hr0.0 mm/hr 0.00 in0.0 mm
11:15 PM 35.2°F1.8°C 25.7°F-3.5°C 68% 4.0 mph NE6.4 kmh NE 9.0 mph14.5 kmh 29.71 in1006.1 mb 0.00 in0.0 mm 0.00 in/hr0.0 mm/hr 0.00 in0.0 mm
11:20 PM 35.4°F1.9°C 25.9°F-3.4°C 68% 4.0 mph NE6.4 kmh NE 11.0 mph17.7 kmh 29.71 in1006.1 mb 0.00 in0.0 mm 0.00 in/hr0.0 mm/hr 0.00 in0.0 mm
11:25 PM 35.4°F1.9°C 25.9°F-3.4°C 68% 4.0 mph NNE6.4 kmh NNE 11.0 mph17.7 kmh 29.71 in1006.1 mb 0.00 in0.0 mm 0.00 in/hr0.0 mm/hr 0.00 in0.0 mm
11:30 PM 35.5°F1.9°C 26.0°F-3.3°C 68% 4.0 mph NE6.4 kmh NE 9.0 mph14.5 kmh 29.70 in1005.8 mb 0.00 in0.0 mm 0.00 in/hr0.0 mm/hr 0.00 in0.0 mm
11:35 PM 35.5°F1.9°C 26.0°F-3.3°C 68% 4.0 mph NE6.4 kmh NE 9.0 mph14.5 kmh 29.70 in1005.8 mb 0.00 in0.0 mm 0.00 in/hr0.0 mm/hr 0.00 in0.0 mm
11:40 PM 35.5°F1.9°C 26.0°F-3.3°C 68% 3.0 mph NE4.8 kmh NE 9.0 mph14.5 kmh 29.70 in1005.8 mb 0.00 in0.0 mm 0.00 in/hr0.0 mm/hr 0.00 in0.0 mm
11:45 PM 35.3°F1.8°C 25.8°F-3.4°C 68% 4.0 mph NE6.4 kmh NE 10.0 mph16.1 kmh 29.70 in1005.8 mb 0.00 in0.0 mm 0.00 in/hr0.0 mm/hr 0.00 in0.0 mm
11:50 PM 35.1°F1.7°C 25.6°F-3.6°C 68% 3.0 mph NE4.8 kmh NE 10.0 mph16.1 kmh 29.70 in1005.8 mb 0.00 in0.0 mm 0.00 in/hr0.0 mm/hr 0.00 in0.0 mm
11:55 PM 35.1°F1.7°C 25.6°F-3.6°C 68% 3.0 mph NE4.8 kmh NE 6.0 mph9.7 kmh 29.70 in1005.8 mb 0.00 in0.0 mm 0.00 in/hr0.0 mm/hr 0.00 in0.0 mm